createdAt,value
2018-03-11T00:01:12.686Z,75.80
2018-03-11T00:03:40.271Z,75.60
2018-03-11T00:06:07.803Z,75.80
2018-03-11T00:08:40.715Z,75.80
2018-03-11T00:11:08.242Z,75.80
2018-03-11T00:13:35.751Z,75.70
2018-03-11T00:16:03.719Z,76.00
2018-03-11T00:18:31.230Z,76.00
2018-03-11T00:20:58.763Z,75.90
2018-03-11T00:23:26.272Z,75.80
2018-03-11T00:25:53.824Z,76.00
2018-03-11T00:28:21.395Z,75.90
2018-03-11T00:30:49.322Z,76.00
2018-03-11T00:33:16.842Z,76.00
2018-03-11T00:35:46.894Z,76.00
2018-03-11T00:38:14.423Z,76.00
2018-03-11T00:40:41.971Z,76.10
2018-03-11T00:43:09.484Z,76.20
2018-03-11T00:45:37.067Z,76.10
2018-03-11T00:48:04.615Z,75.90
2018-03-11T00:50:32.184Z,76.20
2018-03-11T00:52:59.715Z,76.00
2018-03-11T00:55:34.474Z,76.10
2018-03-11T00:58:02.042Z,76.10
2018-03-11T01:00:29.991Z,76.20
2018-03-11T01:02:57.524Z,76.20
2018-03-11T01:05:25.044Z,76.10
2018-03-11T01:07:52.578Z,76.30
2018-03-11T01:10:20.098Z,76.20
2018-03-11T01:12:47.671Z,76.20
2018-03-11T01:15:15.195Z,76.20
2018-03-11T01:17:42.710Z,76.20
2018-03-11T01:20:10.619Z,76.10
2018-03-11T01:22:38.149Z,76.10
2018-03-11T01:25:05.694Z,76.10
2018-03-11T01:27:33.650Z,76.20
2018-03-11T01:30:04.825Z,76.20
2018-03-11T01:32:32.400Z,76.30
2018-03-11T01:35:04.847Z,76.10
2018-03-11T01:37:32.494Z,76.30
2018-03-11T01:40:00.056Z,76.20
2018-03-11T01:42:27.962Z,76.40
2018-03-11T01:44:55.504Z,76.40
2018-03-11T01:47:23.123Z,76.60
2018-03-11T01:49:50.647Z,76.60
2018-03-11T01:52:18.645Z,76.80
2018-03-11T01:54:46.163Z,76.80
2018-03-11T01:57:14.382Z,76.80
2018-03-11T01:59:41.911Z,76.90
2018-03-11T02:02:09.674Z,76.70
2018-03-11T02:04:37.194Z,76.80
2018-03-11T02:07:10.787Z,77.00
2018-03-11T02:09:38.298Z,76.80
2018-03-11T02:12:06.315Z,77.10
2018-03-11T02:14:33.955Z,77.10
2018-03-11T02:17:01.493Z,77.00
2018-03-11T02:19:29.050Z,77.20
2018-03-11T02:21:56.570Z,77.30
2018-03-11T02:24:28.913Z,77.40
2018-03-11T02:26:56.446Z,77.20
2018-03-11T02:29:23.979Z,77.30
2018-03-11T02:31:51.519Z,77.10
2018-03-11T02:34:19.035Z,77.30
2018-03-11T02:36:46.946Z,77.40
2018-03-11T02:39:14.471Z,77.40
2018-03-11T02:41:42.386Z,77.40
2018-03-11T02:44:09.897Z,77.30
2018-03-11T02:46:37.831Z,77.40
2018-03-11T02:49:05.342Z,77.40
2018-03-11T02:51:32.953Z,77.40
2018-03-11T02:54:00.478Z,77.50
2018-03-11T02:56:34.495Z,77.50
2018-03-11T02:59:02.019Z,77.60
2018-03-11T03:01:29.601Z,77.70
2018-03-11T03:04:04.438Z,77.60
2018-03-11T03:06:32.031Z,77.60
2018-03-11T03:08:59.547Z,77.80
2018-03-11T03:11:27.157Z,77.60
2018-03-11T03:13:58.900Z,77.80
2018-03-11T03:16:26.409Z,77.80
2018-03-11T03:18:53.918Z,77.80
2018-03-11T03:21:28.562Z,77.50
2018-03-11T03:23:56.086Z,77.60
2018-03-11T03:26:23.629Z,77.80
2018-03-11T03:28:53.738Z,77.60
2018-03-11T03:31:28.571Z,77.60
2018-03-11T03:33:56.070Z,77.90
2018-03-11T03:36:24.029Z,78.00
2018-03-11T03:38:51.549Z,78.00
2018-03-11T03:41:19.160Z,78.00
2018-03-11T03:43:47.173Z,77.90
2018-03-11T03:46:14.700Z,77.90
2018-03-11T03:48:42.603Z,78.20
2018-03-11T03:51:10.210Z,78.20
2018-03-11T03:53:37.723Z,78.00
2018-03-11T03:56:16.455Z,78.00
2018-03-11T03:58:43.966Z,78.10
2018-03-11T04:01:11.497Z,78.10
2018-03-11T04:03:39.020Z,78.00
2018-03-11T04:06:06.532Z,78.10
2018-03-11T04:08:34.500Z,78.10
2018-03-11T04:11:02.163Z,78.10
2018-03-11T04:13:29.798Z,78.30
2018-03-11T04:15:58.887Z,78.20
2018-03-11T04:18:26.402Z,78.20
2018-03-11T04:20:54.002Z,78.20
2018-03-11T04:23:21.504Z,78.20
2018-03-11T04:25:49.015Z,78.20
2018-03-11T04:28:16.567Z,78.00
2018-03-11T04:30:44.081Z,78.00
2018-03-11T04:33:11.590Z,78.30
2018-03-11T04:35:39.102Z,78.30
2018-03-11T04:38:06.633Z,78.20
2018-03-11T04:40:34.162Z,78.20
2018-03-11T04:43:05.001Z,78.40
2018-03-11T04:45:40.522Z,78.50
2018-03-11T04:48:08.110Z,78.40
2018-03-11T04:50:35.628Z,78.50
2018-03-11T04:53:03.226Z,78.50
2018-03-11T04:55:30.761Z,78.50
2018-03-11T04:57:58.295Z,78.60
2018-03-11T05:00:25.823Z,78.40
2018-03-11T05:02:53.512Z,78.50
2018-03-11T05:05:21.130Z,78.50
2018-03-11T05:07:48.685Z,78.70
2018-03-11T05:10:16.867Z,78.60
2018-03-11T05:12:44.779Z,78.70
2018-03-11T05:15:12.300Z,78.70
2018-03-11T05:17:40.263Z,78.70
2018-03-11T05:20:08.219Z,78.80
2018-03-11T05:22:35.778Z,78.80
2018-03-11T05:25:03.301Z,78.80
2018-03-11T05:27:30.822Z,78.80
2018-03-11T05:29:58.342Z,78.90
2018-03-11T05:32:25.856Z,78.80
2018-03-11T05:34:59.002Z,78.80
2018-03-11T05:37:26.538Z,78.60
2018-03-11T05:39:59.040Z,78.90
2018-03-11T05:42:26.669Z,78.80
2018-03-11T05:44:58.877Z,78.70
2018-03-11T05:47:28.999Z,78.70
2018-03-11T05:49:56.546Z,79.00
2018-03-11T05:52:24.082Z,78.90
2018-03-11T05:54:51.590Z,79.10
2018-03-11T05:57:19.196Z,79.00
2018-03-11T05:59:46.847Z,79.00
2018-03-11T06:02:14.366Z,79.00
2018-03-11T06:04:52.517Z,79.00
2018-03-11T06:07:20.078Z,79.00
2018-03-11T06:09:47.584Z,79.10
2018-03-11T06:12:15.191Z,79.30
2018-03-11T06:14:42.706Z,79.40
2018-03-11T06:17:10.335Z,79.50
2018-03-11T06:19:37.863Z,79.40
2018-03-11T06:22:05.422Z,79.30
2018-03-11T06:24:32.946Z,79.20
2018-03-11T06:27:05.052Z,79.50
2018-03-11T06:29:32.564Z,79.40
2018-03-11T06:32:00.109Z,79.30
2018-03-11T06:34:27.710Z,79.20
2018-03-11T06:36:55.243Z,79.30
2018-03-11T06:39:22.751Z,79.40
2018-03-11T06:41:50.290Z,79.20
2018-03-11T06:44:17.820Z,79.20
2018-03-11T06:46:58.287Z,79.40
2018-03-11T06:49:28.955Z,79.20
2018-03-11T06:51:56.499Z,79.30
2018-03-11T06:54:24.017Z,79.20
2018-03-11T06:56:51.532Z,79.20
2018-03-11T06:59:19.484Z,78.90
2018-03-11T07:01:47.171Z,78.90
2018-03-11T07:04:15.120Z,78.90
2018-03-11T07:06:52.686Z,78.90
2018-03-11T07:09:20.224Z,78.80
2018-03-11T07:11:47.771Z,79.10
2018-03-11T07:14:22.638Z,78.70
2018-03-11T07:16:50.154Z,78.50
2018-03-11T07:19:17.682Z,78.30
2018-03-11T07:21:45.223Z,78.10
2018-03-11T07:24:12.862Z,77.90
2018-03-11T07:26:40.399Z,77.50
2018-03-11T07:29:07.941Z,76.70
2018-03-11T07:31:35.476Z,76.20
2018-03-11T07:34:03.449Z,75.30
2018-03-11T07:36:30.971Z,75.30
2018-03-11T07:38:58.574Z,74.80
2018-03-11T07:41:29.077Z,74.60
2018-03-11T07:43:56.606Z,74.20
2018-03-11T07:46:24.134Z,73.70
2018-03-11T07:48:51.674Z,73.50
2018-03-11T07:51:19.182Z,73.10
2018-03-11T07:53:46.773Z,72.90
2018-03-11T07:56:16.908Z,72.70
2018-03-11T07:58:52.651Z,72.30
2018-03-11T08:01:20.602Z,72.30
2018-03-11T08:03:48.115Z,72.30
2018-03-11T08:06:15.622Z,72.10
2018-03-11T08:08:43.146Z,72.10
2018-03-11T08:11:11.054Z,71.90
2018-03-11T08:13:38.636Z,72.10
2018-03-11T08:16:06.242Z,71.90
2018-03-11T08:18:33.817Z,71.70
2018-03-11T08:21:01.335Z,72.10
2018-03-11T08:23:28.951Z,71.90
2018-03-11T08:25:59.058Z,71.60
2018-03-11T08:28:26.567Z,71.50
2018-03-11T08:30:54.096Z,71.60
2018-03-11T08:33:22.097Z,71.40
2018-03-11T08:35:52.970Z,71.40
2018-03-11T08:38:28.752Z,71.40
2018-03-11T08:40:56.686Z,71.20
2018-03-11T08:43:24.214Z,71.20
2018-03-11T08:45:51.731Z,71.00
2018-03-11T08:48:19.750Z,71.10
2018-03-11T08:50:47.256Z,71.10
2018-03-11T08:53:15.241Z,70.80
2018-03-11T08:55:42.946Z,70.80
2018-03-11T08:58:10.654Z,70.80
2018-03-11T09:00:38.601Z,70.80
2018-03-11T09:03:27.762Z,70.80
2018-03-11T09:05:55.271Z,70.70
2018-03-11T09:08:22.883Z,70.80
2018-03-11T09:10:50.404Z,71.00
2018-03-11T09:13:17.930Z,70.80
2018-03-11T09:15:45.481Z,70.70
2018-03-11T09:18:13.012Z,70.70
2018-03-11T09:20:40.566Z,70.80
2018-03-11T09:23:08.080Z,70.60
2018-03-11T09:25:41.026Z,70.50
2018-03-11T09:28:11.163Z,70.40
2018-03-11T09:30:38.746Z,70.40
2018-03-11T09:33:16.618Z,70.30
2018-03-11T09:35:47.019Z,70.10
2018-03-11T09:38:28.340Z,70.40
2018-03-11T09:40:55.854Z,70.20
2018-03-11T09:43:23.387Z,70.10
2018-03-11T09:45:51.013Z,70.10
2018-03-11T09:48:18.566Z,70.30
2018-03-11T09:50:47.110Z,70.50
2018-03-11T09:53:14.655Z,70.40
2018-03-11T09:55:42.227Z,70.30
2018-03-11T09:58:09.734Z,70.30
2018-03-11T10:00:37.288Z,70.30
2018-03-11T10:03:04.807Z,70.10
2018-03-11T10:05:32.324Z,70.00
2018-03-11T10:07:59.847Z,70.00
2018-03-11T10:10:27.370Z,70.00
2018-03-11T10:12:54.903Z,69.80
2018-03-11T10:15:22.459Z,69.70
2018-03-11T10:17:49.958Z,69.80
2018-03-11T10:20:17.467Z,69.90
2018-03-11T10:22:44.994Z,69.70
2018-03-11T10:25:17.047Z,69.60
2018-03-11T10:27:44.955Z,70.00
2018-03-11T10:30:18.983Z,70.00
2018-03-11T10:32:46.586Z,69.70
2018-03-11T10:35:14.511Z,69.90
2018-03-11T10:37:42.086Z,69.90
2018-03-11T10:40:09.957Z,70.00
2018-03-11T10:42:37.877Z,69.70
2018-03-11T10:45:05.397Z,69.70
2018-03-11T10:47:33.348Z,69.80
2018-03-11T10:50:01.027Z,69.90
2018-03-11T10:52:28.694Z,69.50
2018-03-11T10:54:59.231Z,69.40
2018-03-11T10:57:29.139Z,69.90
2018-03-11T10:59:59.055Z,69.90
2018-03-11T11:02:27.566Z,69.50
2018-03-11T11:04:59.955Z,69.40
2018-03-11T11:10:23.067Z,69.30
2018-03-11T11:12:53.187Z,69.30
2018-03-11T11:15:20.855Z,69.20
2018-03-11T11:17:53.028Z,69.60
2018-03-11T11:20:23.132Z,69.40
2018-03-11T11:22:51.111Z,69.20
2018-03-11T11:25:18.619Z,69.20
2018-03-11T11:27:46.232Z,69.50
2018-03-11T11:30:13.750Z,69.30
2018-03-11T11:32:41.287Z,69.00
2018-03-11T11:35:08.801Z,68.90
2018-03-11T11:37:36.706Z,69.10
2018-03-11T11:40:04.227Z,69.10
2018-03-11T11:42:32.170Z,68.80
2018-03-11T11:44:59.699Z,68.80
2018-03-11T11:47:27.234Z,68.90
2018-03-11T11:49:54.777Z,68.90
2018-03-11T11:52:22.824Z,68.60
2018-03-11T11:54:50.414Z,68.70
2018-03-11T11:57:23.200Z,68.90
2018-03-11T11:59:50.854Z,68.90
2018-03-11T12:02:18.926Z,68.60
2018-03-11T12:04:46.570Z,68.60
2018-03-11T12:07:14.118Z,68.90
2018-03-11T12:09:47.198Z,68.80
2018-03-11T12:12:14.783Z,68.70
2018-03-11T12:14:42.341Z,68.40
2018-03-11T12:17:09.999Z,68.40
2018-03-11T12:19:37.668Z,68.70
2018-03-11T12:22:05.327Z,68.60
2018-03-11T12:24:35.328Z,68.40
2018-03-11T12:27:10.805Z,68.80
2018-03-11T12:29:38.360Z,68.70
2018-03-11T12:32:05.982Z,68.40
2018-03-11T12:34:33.682Z,68.40
2018-03-11T12:37:01.205Z,68.40
2018-03-11T12:39:29.147Z,68.40
2018-03-11T12:41:59.107Z,68.40
2018-03-11T12:44:26.718Z,68.40
2018-03-11T12:46:54.271Z,68.40
2018-03-11T12:49:23.129Z,68.40
2018-03-11T12:51:50.785Z,68.20
2018-03-11T12:54:18.319Z,68.20
2018-03-11T12:56:47.123Z,68.40
2018-03-11T12:59:14.776Z,68.60
2018-03-11T13:01:42.310Z,68.40
2018-03-11T13:04:16.982Z,68.20
2018-03-11T13:06:44.514Z,68.20
2018-03-11T13:09:12.051Z,68.20
2018-03-11T13:11:39.585Z,68.00
2018-03-11T13:14:07.330Z,67.90
2018-03-11T13:16:35.171Z,67.90
2018-03-11T13:19:02.704Z,68.10
2018-03-11T13:21:30.358Z,67.90
2018-03-11T13:23:59.174Z,67.80
2018-03-11T13:26:27.104Z,68.00
2018-03-11T13:28:54.703Z,68.00
2018-03-11T13:31:22.258Z,67.70
2018-03-11T13:34:04.899Z,67.60
2018-03-11T13:36:35.294Z,67.70
2018-03-11T13:39:16.992Z,67.90
2018-03-11T13:41:44.547Z,67.70
2018-03-11T13:44:17.122Z,67.60
2018-03-11T13:47:11.415Z,67.80
2018-03-11T13:49:38.949Z,67.80
2018-03-11T13:52:22.875Z,67.50
2018-03-11T13:54:53.218Z,67.50
2018-03-11T13:57:34.522Z,67.70
2018-03-11T14:00:02.526Z,67.60
2018-03-11T14:02:40.857Z,67.40
2018-03-11T14:05:08.378Z,67.30
2018-03-11T14:07:35.891Z,67.40
2018-03-11T14:10:03.817Z,67.00
2018-03-11T14:12:31.367Z,67.00
2018-03-11T14:14:58.886Z,66.90
2018-03-11T14:17:26.400Z,67.10
2018-03-11T14:19:59.105Z,67.20
2018-03-11T14:22:29.207Z,67.00
2018-03-11T14:24:59.147Z,66.90
2018-03-11T14:27:40.440Z,66.90
2018-03-11T14:30:11.155Z,66.70
2018-03-11T14:32:39.100Z,66.70
2018-03-11T14:35:06.637Z,66.70
2018-03-11T14:37:35.303Z,66.90
2018-03-11T14:40:02.917Z,66.80
2018-03-11T14:42:35.280Z,66.70
2018-03-11T14:45:05.205Z,66.60
2018-03-11T14:47:32.719Z,66.80
2018-03-11T14:50:16.651Z,67.00
2018-03-11T14:52:47.251Z,66.80
2018-03-11T14:55:14.764Z,66.70
2018-03-11T14:57:42.370Z,66.70
2018-03-11T15:00:10.008Z,66.80
2018-03-11T15:02:37.592Z,66.60
2018-03-11T15:05:05.148Z,66.50
2018-03-11T15:07:32.803Z,66.60
2018-03-11T15:10:00.475Z,66.30
2018-03-11T15:12:28.022Z,66.00
2018-03-11T15:14:59.276Z,66.30
2018-03-11T15:17:29.191Z,66.30
2018-03-11T15:19:56.851Z,66.30
2018-03-11T15:22:24.766Z,65.90
2018-03-11T15:24:52.374Z,65.90
2018-03-11T15:27:20.357Z,65.80
2018-03-11T15:29:47.904Z,65.80
2018-03-11T15:32:15.441Z,65.70
2018-03-11T15:34:47.299Z,65.70
2018-03-11T15:37:14.824Z,65.80
2018-03-11T15:39:47.373Z,65.80
2018-03-11T15:42:15.000Z,65.60
2018-03-11T15:44:52.975Z,65.60
2018-03-11T15:47:23.198Z,65.60
2018-03-11T15:49:50.723Z,65.50
2018-03-11T15:52:18.250Z,65.50
2018-03-11T15:54:45.798Z,65.50
2018-03-11T15:57:13.704Z,65.50
2018-03-11T15:59:41.379Z,65.50
2018-03-11T16:02:09.004Z,65.40
2018-03-11T16:04:41.374Z,65.30
2018-03-11T16:07:08.925Z,65.30
2018-03-11T16:09:47.004Z,65.20
2018-03-11T16:12:14.587Z,65.20
2018-03-11T16:14:42.743Z,65.20
2018-03-11T16:17:16.938Z,65.20
2018-03-11T16:19:44.457Z,65.10
2018-03-11T16:22:11.986Z,65.10
2018-03-11T16:24:39.934Z,65.10
2018-03-11T16:27:07.324Z,65.10
2018-03-11T16:29:35.387Z,65.10
2018-03-11T16:32:03.052Z,65.10
2018-03-11T16:34:35.212Z,65.10
2018-03-11T16:37:05.334Z,65.20
2018-03-11T16:39:32.854Z,65.30
2018-03-11T16:42:00.442Z,65.10
2018-03-11T16:44:29.306Z,65.10
2018-03-11T16:46:56.890Z,65.20
2018-03-11T16:49:24.443Z,65.10
2018-03-11T16:51:51.991Z,64.90
2018-03-11T16:54:19.555Z,65.00
2018-03-11T16:56:47.199Z,65.10
2018-03-11T16:59:14.715Z,65.20
2018-03-11T17:01:47.275Z,64.90
2018-03-11T17:04:14.787Z,64.90
2018-03-11T17:06:42.379Z,64.80
2018-03-11T17:09:09.913Z,64.80
2018-03-11T17:11:37.488Z,64.80
2018-03-11T17:14:05.146Z,64.90
2018-03-11T17:16:32.675Z,64.80
2018-03-11T17:19:00.198Z,64.80
2018-03-11T17:21:27.774Z,64.70
2018-03-11T17:23:55.292Z,64.70
2018-03-11T17:26:22.870Z,64.70
2018-03-11T17:28:50.386Z,64.70
2018-03-11T17:31:18.015Z,64.70
2018-03-11T17:33:45.542Z,64.80
2018-03-11T17:36:13.102Z,64.80
2018-03-11T17:38:47.007Z,64.60
2018-03-11T17:41:14.580Z,64.50
2018-03-11T17:43:42.126Z,64.70
2018-03-11T17:46:09.694Z,64.70
2018-03-11T17:48:41.273Z,64.60
2018-03-11T17:51:16.983Z,64.50
2018-03-11T17:53:44.542Z,64.70
2018-03-11T17:56:12.067Z,64.70
2018-03-11T17:58:39.697Z,64.60
2018-03-11T18:01:07.663Z,64.70
2018-03-11T18:03:35.625Z,64.70
2018-03-11T18:06:03.139Z,64.70
2018-03-11T18:08:30.748Z,64.70
2018-03-11T18:10:59.419Z,64.60
2018-03-11T18:13:29.318Z,64.80
2018-03-11T18:15:56.829Z,64.50
2018-03-11T18:18:24.448Z,64.50
2018-03-11T18:20:51.995Z,64.70
2018-03-11T18:23:19.770Z,64.90
2018-03-11T18:25:58.963Z,65.60
2018-03-11T18:28:29.422Z,65.60
2018-03-11T18:30:59.342Z,65.60
2018-03-11T18:33:26.847Z,66.60
2018-03-11T18:35:54.450Z,67.20
2018-03-11T18:38:21.967Z,67.40
2018-03-11T18:40:59.054Z,67.50
2018-03-11T18:43:40.860Z,67.60
2018-03-11T18:46:08.439Z,67.70
2018-03-11T18:48:35.949Z,68.00
2018-03-11T18:51:05.427Z,68.20
2018-03-11T18:53:32.949Z,68.30
2018-03-11T18:58:53.988Z,68.90
2018-03-11T19:01:21.530Z,68.90
2018-03-11T19:03:49.107Z,68.90
2018-03-11T19:06:29.021Z,69.10
2018-03-11T19:09:05.030Z,69.30
2018-03-11T19:11:32.573Z,69.40
2018-03-11T19:14:05.371Z,69.50
2018-03-11T19:16:32.897Z,69.60
2018-03-11T19:21:53.122Z,69.70
2018-03-11T19:24:34.646Z,69.90
2018-03-11T19:27:11.039Z,70.00
2018-03-11T19:29:41.300Z,70.20
2018-03-11T19:32:08.802Z,70.20
2018-03-11T19:34:36.394Z,70.30
2018-03-11T19:37:03.947Z,70.40
2018-03-11T19:39:41.019Z,70.40
2018-03-11T19:42:08.590Z,70.50
2018-03-11T19:44:36.106Z,70.70
2018-03-11T19:47:03.759Z,70.70
2018-03-11T19:49:31.377Z,70.80
2018-03-11T19:52:10.978Z,70.90
2018-03-11T19:54:41.447Z,71.00
2018-03-11T19:57:08.963Z,71.00
2018-03-11T19:59:36.557Z,71.10
2018-03-11T20:02:04.073Z,71.20
2018-03-11T20:04:31.672Z,71.20
2018-03-11T20:06:59.335Z,71.30
2018-03-11T20:09:26.900Z,71.30
2018-03-11T20:12:04.970Z,71.40
2018-03-11T20:14:32.616Z,71.30
2018-03-11T20:17:00.242Z,71.50
2018-03-11T20:19:27.878Z,71.50
2018-03-11T20:21:55.389Z,71.50
2018-03-11T20:24:23.402Z,71.50
2018-03-11T20:26:50.904Z,71.70
2018-03-11T20:29:18.527Z,71.80
2018-03-11T20:31:46.058Z,71.90
2018-03-11T20:34:13.639Z,71.90
2018-03-11T20:36:41.362Z,72.00
2018-03-11T20:39:28.769Z,71.90
2018-03-11T20:41:56.308Z,72.00
2018-03-11T20:47:17.014Z,72.10
2018-03-11T20:49:44.531Z,72.10
2018-03-11T20:52:17.450Z,72.20
2018-03-11T20:54:44.970Z,72.20
2018-03-11T20:57:12.564Z,72.20
2018-03-11T20:59:40.091Z,72.30
2018-03-11T21:02:07.702Z,72.30
2018-03-11T21:07:41.235Z,72.40
2018-03-11T21:10:22.831Z,72.40
2018-03-11T21:12:50.334Z,72.40
2018-03-11T21:15:17.850Z,72.50
2018-03-11T21:17:47.504Z,72.50
2018-03-11T21:20:15.046Z,72.60
2018-03-11T21:22:42.643Z,72.60
2018-03-11T21:25:10.147Z,72.60
2018-03-11T21:27:37.758Z,72.70
2018-03-11T21:30:05.267Z,72.70
2018-03-11T21:32:32.888Z,72.70
2018-03-11T21:35:00.514Z,72.70
2018-03-11T21:37:28.048Z,72.70
2018-03-11T21:39:55.634Z,72.80
2018-03-11T21:42:23.154Z,72.80
2018-03-11T21:44:50.746Z,72.90
2018-03-11T21:47:29.173Z,73.00
2018-03-11T21:50:05.424Z,73.00
2018-03-11T21:52:32.994Z,73.00
2018-03-11T21:55:00.503Z,73.00
2018-03-11T22:00:23.424Z,73.00
2018-03-11T22:05:44.534Z,73.00
2018-03-11T22:08:12.062Z,73.10
2018-03-11T22:10:41.503Z,73.10
2018-03-11T22:13:17.038Z,73.20
2018-03-11T22:15:44.604Z,73.20
2018-03-11T22:18:12.114Z,73.20
2018-03-11T22:20:39.718Z,73.30
2018-03-11T22:23:22.670Z,73.30
2018-03-11T22:25:50.222Z,73.30
2018-03-11T22:28:17.733Z,73.30
2018-03-11T22:30:47.359Z,73.40
2018-03-11T22:33:14.871Z,73.40
2018-03-11T22:35:42.470Z,73.40
2018-03-11T22:38:11.380Z,73.40
2018-03-11T22:40:52.937Z,73.50
2018-03-11T22:43:34.704Z,73.50
2018-03-11T22:46:02.206Z,73.50
2018-03-11T22:48:35.382Z,73.50
2018-03-11T22:51:11.107Z,73.50
2018-03-11T22:54:04.361Z,73.50
2018-03-11T22:56:31.965Z,73.60
2018-03-11T22:59:16.830Z,73.50
2018-03-11T23:01:53.158Z,73.60
2018-03-11T23:04:20.765Z,73.60
2018-03-11T23:06:53.731Z,73.60
2018-03-11T23:09:21.419Z,73.60
2018-03-11T23:14:41.531Z,73.60
2018-03-11T23:17:09.243Z,73.60
2018-03-11T23:19:47.166Z,73.60
2018-03-11T23:22:14.725Z,73.50
2018-03-11T23:24:47.526Z,73.50
2018-03-11T23:30:11.522Z,73.50
2018-03-11T23:32:39.026Z,73.50
2018-03-11T23:35:06.609Z,73.60
2018-03-11T23:37:34.142Z,73.60
2018-03-11T23:40:01.723Z,73.70
2018-03-11T23:42:29.397Z,73.70
2018-03-11T23:44:56.896Z,73.70
2018-03-11T23:47:46.258Z,73.70
2018-03-11T23:50:13.885Z,73.70
2018-03-11T23:52:41.393Z,73.70
2018-03-11T23:55:11.460Z,73.70
2018-03-11T23:57:41.572Z,73.70
